createdAt,value
2023-11-27T00:00:37.330Z,6.55
2023-11-27T00:03:07.632Z,6.35
2023-11-27T00:05:34.427Z,5.22
2023-11-27T00:08:01.304Z,4.72
2023-11-27T00:10:28.045Z,4.22
2023-11-27T00:12:59.928Z,7.43
2023-11-27T00:15:26.757Z,8.10
2023-11-27T00:17:54.019Z,8.70
2023-11-27T00:20:20.750Z,5.82
2023-11-27T00:22:47.445Z,5.13
2023-11-27T00:25:14.243Z,6.68
2023-11-27T00:27:40.954Z,8.05
2023-11-27T00:30:08.828Z,5.00
2023-11-27T00:32:35.832Z,5.70
2023-11-27T00:35:02.617Z,5.30
2023-11-27T00:37:29.341Z,6.70
2023-11-27T00:39:56.034Z,5.53
2023-11-27T00:42:23.803Z,6.40
2023-11-27T00:44:50.465Z,6.47
2023-11-27T00:47:17.264Z,6.00
2023-11-27T00:49:44.201Z,7.80
2023-11-27T00:52:10.921Z,5.90
2023-11-27T00:54:37.620Z,6.03
2023-11-27T00:57:04.604Z,6.18
2023-11-27T00:59:32.744Z,4.72
2023-11-27T01:01:59.499Z,7.20
2023-11-27T01:04:26.367Z,8.52
2023-11-27T01:06:53.143Z,4.78
2023-11-27T01:09:22.182Z,6.50
2023-11-27T01:11:48.846Z,4.22
2023-11-27T01:14:16.547Z,5.82
2023-11-27T01:16:43.312Z,5.80
2023-11-27T01:19:10.175Z,6.03
2023-11-27T01:21:36.916Z,8.52
2023-11-27T01:24:06.537Z,4.80
2023-11-27T01:26:34.152Z,4.90
2023-11-27T01:29:00.926Z,6.10
2023-11-27T01:31:27.626Z,4.28
2023-11-27T01:33:54.355Z,5.68
2023-11-27T01:36:21.120Z,5.10
2023-11-27T01:38:47.972Z,5.00
2023-11-27T01:41:14.798Z,4.28
2023-11-27T01:43:42.352Z,5.43
2023-11-27T01:46:26.824Z,8.20
2023-11-27T01:48:57.854Z,5.53
2023-11-27T01:51:26.254Z,5.18
2023-11-27T01:53:57.646Z,4.28
2023-11-27T01:56:26.553Z,9.15
2023-11-27T01:58:56.808Z,3.97
2023-11-27T02:01:24.261Z,6.97
2023-11-27T02:03:51.074Z,5.00
2023-11-27T02:06:18.070Z,5.53
2023-11-27T02:08:44.737Z,6.22
2023-11-27T02:11:11.475Z,7.88
2023-11-27T02:13:38.152Z,5.03
2023-11-27T02:16:05.337Z,6.10
2023-11-27T02:18:32.165Z,4.85
2023-11-27T02:21:03.399Z,3.58
2023-11-27T02:23:30.178Z,6.32
2023-11-27T02:25:56.889Z,3.38
2023-11-27T02:28:23.764Z,5.18
2023-11-27T02:30:50.606Z,4.85
2023-11-27T02:33:17.549Z,6.40
2023-11-27T02:35:44.222Z,3.95
2023-11-27T02:38:11.012Z,3.58
2023-11-27T02:40:37.694Z,6.05
2023-11-27T02:43:05.116Z,6.15
2023-11-27T02:45:34.166Z,6.85
2023-11-27T02:48:01.640Z,4.57
2023-11-27T02:50:28.372Z,6.57
2023-11-27T02:52:55.891Z,5.68
2023-11-27T02:55:22.950Z,5.50
2023-11-27T02:57:49.655Z,6.45
2023-11-27T03:00:16.709Z,5.07
2023-11-27T03:02:46.288Z,8.25
2023-11-27T03:05:13.213Z,5.47
2023-11-27T03:07:40.077Z,5.25
2023-11-27T03:10:09.200Z,5.43
2023-11-27T03:12:37.000Z,7.40
2023-11-27T03:15:04.223Z,5.22
2023-11-27T03:17:30.954Z,3.95
2023-11-27T03:19:57.932Z,6.95
2023-11-27T03:22:25.328Z,3.75
2023-11-27T03:24:52.073Z,8.63
2023-11-27T03:27:18.826Z,10.73
2023-11-27T03:29:45.506Z,4.30
2023-11-27T03:32:12.265Z,5.68
2023-11-27T03:34:39.203Z,5.20
2023-11-27T03:37:06.221Z,6.00
2023-11-27T03:39:32.986Z,7.53
2023-11-27T03:42:01.465Z,6.65
2023-11-27T03:44:28.186Z,4.53
2023-11-27T03:46:54.844Z,5.68
2023-11-27T03:49:21.637Z,5.55
2023-11-27T03:51:48.334Z,6.32
2023-11-27T03:54:15.857Z,5.90
2023-11-27T03:56:42.918Z,9.75
2023-11-27T03:59:09.593Z,9.25
2023-11-27T04:01:36.417Z,4.57
2023-11-27T04:04:03.341Z,7.43
2023-11-27T04:06:32.989Z,5.25
2023-11-27T04:09:00.372Z,6.03
2023-11-27T04:11:28.416Z,4.95
2023-11-27T04:13:56.019Z,10.43
2023-11-27T04:16:23.366Z,8.35
2023-11-27T04:18:50.282Z,7.57
2023-11-27T04:21:18.393Z,3.15
2023-11-27T04:23:49.251Z,4.88
2023-11-27T04:26:17.179Z,8.10
2023-11-27T04:28:44.255Z,8.00
2023-11-27T04:31:11.320Z,5.53
2023-11-27T04:33:38.288Z,6.00
2023-11-27T04:36:05.426Z,4.20
2023-11-27T04:38:32.207Z,5.22
2023-11-27T04:40:58.939Z,3.85
2023-11-27T04:43:26.681Z,4.93
2023-11-27T04:45:53.516Z,6.53
2023-11-27T04:48:23.015Z,5.07
2023-11-27T04:50:49.857Z,6.00
2023-11-27T04:53:16.559Z,5.80
2023-11-27T04:55:43.375Z,6.57
2023-11-27T04:58:10.195Z,5.95
2023-11-27T05:00:37.727Z,4.05
2023-11-27T05:03:04.483Z,3.55
2023-11-27T05:05:31.146Z,6.30
2023-11-27T05:07:57.880Z,5.55
2023-11-27T05:10:24.767Z,6.10
2023-11-27T05:12:51.539Z,5.55
2023-11-27T05:15:18.557Z,7.20
2023-11-27T05:17:46.637Z,7.10
2023-11-27T05:20:13.520Z,8.50
2023-11-27T05:22:40.263Z,4.90
2023-11-27T05:25:07.505Z,4.57
2023-11-27T05:27:34.473Z,6.30
2023-11-27T05:30:01.175Z,6.40
2023-11-27T05:32:28.148Z,5.55
2023-11-27T05:34:54.901Z,6.05
2023-11-27T05:37:21.656Z,4.93
2023-11-27T05:39:48.377Z,3.92
2023-11-27T05:42:15.091Z,7.03
2023-11-27T05:44:42.017Z,6.10
2023-11-27T05:47:09.437Z,8.13
2023-11-27T05:49:36.268Z,7.88
2023-11-27T05:52:04.311Z,4.65
2023-11-27T05:54:31.067Z,7.38
2023-11-27T05:56:57.744Z,5.85
2023-11-27T05:59:24.531Z,4.95
2023-11-27T06:01:52.863Z,6.70
2023-11-27T06:04:19.676Z,6.35
2023-11-27T06:06:46.334Z,4.90
2023-11-27T06:09:13.003Z,8.75
2023-11-27T06:11:39.716Z,7.13
2023-11-27T06:14:06.575Z,8.88
2023-11-27T06:16:33.414Z,6.25
2023-11-27T06:19:01.063Z,4.45
2023-11-27T06:21:28.938Z,4.05
2023-11-27T06:23:56.152Z,5.50
2023-11-27T06:26:22.844Z,8.63
2023-11-27T06:28:49.678Z,5.60
2023-11-27T06:31:17.238Z,7.50
2023-11-27T06:33:44.090Z,5.43
2023-11-27T06:36:11.710Z,6.03
2023-11-27T06:38:38.820Z,8.25
2023-11-27T06:41:07.062Z,5.55
2023-11-27T06:43:35.767Z,6.68
2023-11-27T06:46:02.599Z,6.97
2023-11-27T06:48:30.276Z,9.73
2023-11-27T06:50:56.974Z,7.75
2023-11-27T06:53:25.346Z,7.50
2023-11-27T06:55:52.042Z,6.65
2023-11-27T06:58:18.710Z,6.28
2023-11-27T07:00:46.510Z,9.48
2023-11-27T07:03:13.248Z,10.63
2023-11-27T07:05:40.047Z,6.88
2023-11-27T07:08:07.124Z,8.65
2023-11-27T07:10:34.048Z,7.03
2023-11-27T07:13:01.221Z,8.52
2023-11-27T07:15:29.288Z,7.95
2023-11-27T07:18:03.153Z,10.35
2023-11-27T07:20:37.349Z,6.25
2023-11-27T07:23:05.056Z,5.15
2023-11-27T07:25:31.733Z,5.60
2023-11-27T07:27:58.480Z,7.82
2023-11-27T07:30:25.176Z,5.45
2023-11-27T07:32:51.885Z,7.20
2023-11-27T07:35:18.566Z,6.95
2023-11-27T07:37:45.275Z,4.90
2023-11-27T07:40:15.777Z,11.20
2023-11-27T07:42:44.022Z,5.13
2023-11-27T07:45:11.155Z,5.50
2023-11-27T07:47:37.920Z,6.40
2023-11-27T07:50:07.641Z,6.80
2023-11-27T07:52:34.766Z,5.32
2023-11-27T07:55:01.924Z,6.35
2023-11-27T07:57:29.353Z,4.43
2023-11-27T07:59:56.397Z,4.28
2023-11-27T08:02:23.102Z,7.32
2023-11-27T08:04:49.907Z,4.00
2023-11-27T08:07:17.833Z,5.50
2023-11-27T08:09:47.882Z,3.60
2023-11-27T08:14:41.809Z,3.60
2023-11-27T08:17:09.143Z,2.90
2023-11-27T08:19:36.037Z,4.03
2023-11-27T08:22:05.075Z,5.45
2023-11-27T08:24:35.022Z,2.38
2023-11-27T08:27:02.712Z,4.30
2023-11-27T08:29:32.756Z,2.17
2023-11-27T08:32:01.304Z,2.72
2023-11-27T08:34:30.084Z,6.13
2023-11-27T08:37:00.887Z,5.00
2023-11-27T08:39:27.821Z,1.90
2023-11-27T08:41:54.517Z,1.65
2023-11-27T08:44:21.601Z,2.33
2023-11-27T08:46:48.670Z,3.00
2023-11-27T08:49:15.995Z,1.77
2023-11-27T08:51:46.291Z,2.20
2023-11-27T08:54:13.206Z,1.33
2023-11-27T08:56:42.519Z,2.63
2023-11-27T08:59:09.805Z,2.08
2023-11-27T09:01:37.595Z,1.73
2023-11-27T09:04:05.054Z,1.38
2023-11-27T09:06:31.849Z,1.30
2023-11-27T09:09:00.569Z,1.23
2023-11-27T09:11:28.388Z,1.33
2023-11-27T09:13:56.920Z,2.20
2023-11-27T09:16:23.689Z,1.95
2023-11-27T09:18:50.347Z,2.28
2023-11-27T09:21:17.069Z,1.65
2023-11-27T09:23:44.686Z,2.58
2023-11-27T09:26:11.624Z,1.77
2023-11-27T09:28:38.349Z,2.08
2023-11-27T09:31:05.423Z,2.25
2023-11-27T09:33:33.702Z,2.97
2023-11-27T09:36:02.261Z,2.38
2023-11-27T09:38:28.970Z,1.50
2023-11-27T09:40:56.859Z,1.83
2023-11-27T09:43:23.751Z,1.67
2023-11-27T09:45:50.657Z,2.58
2023-11-27T09:48:19.911Z,2.72
2023-11-27T09:50:49.618Z,2.67
2023-11-27T09:53:21.068Z,1.38
2023-11-27T09:55:51.496Z,2.35
2023-11-27T09:58:18.411Z,1.40
2023-11-27T10:00:49.818Z,1.95
2023-11-27T10:03:17.273Z,2.35
2023-11-27T10:05:44.399Z,2.25
2023-11-27T10:08:13.029Z,2.15
2023-11-27T10:10:39.824Z,1.77
2023-11-27T10:13:12.311Z,2.53
2023-11-27T10:15:50.365Z,2.10
2023-11-27T10:18:21.147Z,1.98
2023-11-27T10:20:50.745Z,2.85
2023-11-27T10:23:17.557Z,3.85
2023-11-27T10:25:44.317Z,1.92
2023-11-27T10:28:11.034Z,2.20
2023-11-27T10:30:37.839Z,2.58
2023-11-27T10:33:04.556Z,2.17
2023-11-27T10:35:34.030Z,1.98
2023-11-27T10:38:01.646Z,2.33
2023-11-27T10:40:28.965Z,1.80
2023-11-27T10:43:00.177Z,1.00
2023-11-27T10:45:28.311Z,1.63
2023-11-27T10:47:57.668Z,1.65
2023-11-27T10:50:26.413Z,2.13
2023-11-27T10:52:56.241Z,1.50
2023-11-27T10:57:51.413Z,1.80
2023-11-27T11:00:31.192Z,1.38
2023-11-27T11:03:08.142Z,1.50
2023-11-27T11:06:02.515Z,3.35
2023-11-27T11:08:29.783Z,2.03
2023-11-27T11:10:57.734Z,1.85
2023-11-27T11:13:26.326Z,1.80
2023-11-27T11:16:01.570Z,1.70
2023-11-27T11:18:52.565Z,2.17
2023-11-27T11:21:22.353Z,1.50
2023-11-27T11:24:02.808Z,1.20
2023-11-27T11:26:50.271Z,1.60
2023-11-27T11:29:33.937Z,1.63
2023-11-27T11:32:04.347Z,1.40
2023-11-27T11:34:36.982Z,1.90
2023-11-27T11:37:07.330Z,2.05
2023-11-27T11:39:37.541Z,1.70
2023-11-27T11:42:06.208Z,1.50
2023-11-27T11:44:36.256Z,1.48
2023-11-27T11:49:48.204Z,1.58
2023-11-27T11:52:19.103Z,1.77
2023-11-27T11:54:49.335Z,2.63
2023-11-27T11:57:23.294Z,1.20
2023-11-27T11:59:51.503Z,1.65
2023-11-27T12:02:23.992Z,1.48
2023-11-27T12:04:55.361Z,1.75
2023-11-27T12:07:25.741Z,0.90
2023-11-27T12:09:52.736Z,5.72
2023-11-27T12:12:21.137Z,1.55
2023-11-27T12:14:48.058Z,1.63
2023-11-27T12:17:20.472Z,1.02
2023-11-27T12:19:49.185Z,1.38
2023-11-27T12:22:16.122Z,1.65
2023-11-27T12:24:46.661Z,2.53
2023-11-27T12:27:13.594Z,2.75
2023-11-27T12:29:40.310Z,2.10
2023-11-27T12:32:10.573Z,1.00
2023-11-27T12:34:41.951Z,1.05
2023-11-27T12:37:09.532Z,1.85
2023-11-27T12:39:39.016Z,0.80
2023-11-27T12:42:15.000Z,0.85
2023-11-27T12:44:48.014Z,1.70
2023-11-27T12:47:19.966Z,1.27
2023-11-27T12:49:52.788Z,1.00
2023-11-27T12:52:19.858Z,1.35
2023-11-27T12:54:55.264Z,0.80
2023-11-27T12:57:23.377Z,0.90
2023-11-27T12:59:50.500Z,2.08
2023-11-27T13:02:19.647Z,1.00
2023-11-27T13:04:46.813Z,5.00
2023-11-27T13:07:16.677Z,1.85
2023-11-27T13:09:43.889Z,1.50
2023-11-27T13:12:17.315Z,1.13
2023-11-27T13:14:50.302Z,1.60
2023-11-27T13:17:22.247Z,2.08
2023-11-27T13:19:55.226Z,2.72
2023-11-27T13:22:23.988Z,1.73
2023-11-27T13:24:54.852Z,2.28
2023-11-27T13:27:23.034Z,1.40
2023-11-27T13:29:53.393Z,2.70
2023-11-27T13:32:20.881Z,1.80
2023-11-27T13:34:57.643Z,1.48
2023-11-27T13:37:29.776Z,1.77
2023-11-27T13:39:59.209Z,2.03
2023-11-27T13:42:31.165Z,1.58
2023-11-27T13:44:58.614Z,1.48
2023-11-27T13:47:25.859Z,3.85
2023-11-27T13:49:56.388Z,2.47
2023-11-27T13:52:25.594Z,1.90
2023-11-27T13:54:53.065Z,2.38
2023-11-27T13:57:29.284Z,1.45
2023-11-27T13:59:58.228Z,1.80
2023-11-27T14:02:29.555Z,1.85
2023-11-27T14:05:06.893Z,1.83
2023-11-27T14:07:41.997Z,1.63
2023-11-27T14:10:24.006Z,2.00
2023-11-27T14:13:00.961Z,2.15
2023-11-27T14:15:40.100Z,2.00
2023-11-27T14:18:21.321Z,6.07
2023-11-27T14:21:07.946Z,2.28
2023-11-27T14:23:55.770Z,2.65
2023-11-27T14:26:32.696Z,1.67
2023-11-27T14:29:01.956Z,2.03
2023-11-27T14:31:28.874Z,2.27
2023-11-27T14:33:55.662Z,4.70
2023-11-27T14:36:22.363Z,2.15
2023-11-27T14:38:49.772Z,2.15
2023-11-27T14:41:18.168Z,3.20
2023-11-27T14:43:45.228Z,2.10
2023-11-27T14:46:15.761Z,2.30
2023-11-27T14:48:43.140Z,1.80
2023-11-27T14:51:13.803Z,2.78
2023-11-27T14:53:49.464Z,4.30
2023-11-27T14:56:16.535Z,1.50
2023-11-27T14:58:43.187Z,2.95
2023-11-27T15:01:15.707Z,3.80
2023-11-27T15:03:45.518Z,1.67
2023-11-27T15:06:12.977Z,3.25
2023-11-27T15:08:42.380Z,2.38
2023-11-27T15:11:11.608Z,3.55
2023-11-27T15:13:38.419Z,2.60
2023-11-27T15:16:10.406Z,2.67
2023-11-27T15:18:37.162Z,2.50
2023-11-27T15:21:04.041Z,1.73
2023-11-27T15:23:30.830Z,3.35
2023-11-27T15:25:58.034Z,2.13
2023-11-27T15:28:25.085Z,2.75
2023-11-27T15:30:58.884Z,2.28
2023-11-27T15:33:26.641Z,3.05
2023-11-27T15:35:54.134Z,1.63
2023-11-27T15:38:22.762Z,1.80
2023-11-27T15:40:49.620Z,3.70
2023-11-27T15:43:16.369Z,1.83
2023-11-27T15:45:43.140Z,2.85
2023-11-27T15:48:11.622Z,2.78
2023-11-27T15:50:39.804Z,2.05
2023-11-27T15:53:08.524Z,2.88
2023-11-27T15:55:35.493Z,2.08
2023-11-27T15:58:05.339Z,2.13
2023-11-27T16:00:33.569Z,1.63
2023-11-27T16:03:00.893Z,1.65
2023-11-27T16:05:29.655Z,1.83
2023-11-27T16:07:58.276Z,1.60
2023-11-27T16:10:27.777Z,1.90
2023-11-27T16:12:54.616Z,1.63
2023-11-27T16:15:21.770Z,2.25
2023-11-27T16:17:59.201Z,2.45
2023-11-27T16:20:28.145Z,1.25
2023-11-27T16:22:55.387Z,1.67
2023-11-27T16:25:23.155Z,3.40
2023-11-27T16:27:50.235Z,2.75
2023-11-27T16:30:22.075Z,1.88
2023-11-27T16:32:49.931Z,2.38
2023-11-27T16:35:22.135Z,1.75
2023-11-27T16:37:50.154Z,3.45
2023-11-27T16:40:18.115Z,2.28
2023-11-27T16:42:47.203Z,2.35
2023-11-27T16:45:14.625Z,2.55
2023-11-27T16:47:41.307Z,1.80
2023-11-27T16:50:13.913Z,2.17
2023-11-27T16:52:42.814Z,2.00
2023-11-27T16:55:11.191Z,3.00
2023-11-27T16:57:38.375Z,2.92
2023-11-27T17:00:10.041Z,2.08
2023-11-27T17:02:38.368Z,1.98
2023-11-27T17:05:08.995Z,1.92
2023-11-27T17:07:39.472Z,2.35
2023-11-27T17:10:06.529Z,2.33
2023-11-27T17:12:33.277Z,2.20
2023-11-27T17:14:59.963Z,2.47
2023-11-27T17:17:26.947Z,1.58
2023-11-27T17:19:53.822Z,1.80
2023-11-27T17:22:20.511Z,3.85
2023-11-27T17:24:47.174Z,2.28
2023-11-27T17:27:16.641Z,2.60
2023-11-27T17:29:44.800Z,2.53
2023-11-27T17:32:11.640Z,1.90
2023-11-27T17:34:38.310Z,4.18
2023-11-27T17:37:05.017Z,2.28
2023-11-27T17:39:31.694Z,3.13
2023-11-27T17:41:58.377Z,3.28
2023-11-27T17:44:25.114Z,3.15
2023-11-27T17:46:51.869Z,2.20
2023-11-27T17:49:18.674Z,3.38
2023-11-27T17:51:47.687Z,3.25
2023-11-27T17:54:16.404Z,2.90
2023-11-27T17:56:45.724Z,3.15
2023-11-27T18:01:43.791Z,2.45
2023-11-27T18:04:11.118Z,3.35
2023-11-27T18:06:41.554Z,3.63
2023-11-27T18:09:12.588Z,3.88
2023-11-27T18:11:39.921Z,2.67
2023-11-27T18:14:08.686Z,2.50
2023-11-27T18:16:35.429Z,2.35
2023-11-27T18:19:02.184Z,2.20
2023-11-27T18:21:28.865Z,3.25
2023-11-27T18:23:55.846Z,2.75
2023-11-27T18:26:22.789Z,5.00
2023-11-27T18:28:49.745Z,2.40
2023-11-27T18:31:16.540Z,2.33
2023-11-27T18:33:43.226Z,2.80
2023-11-27T18:36:10.333Z,4.82
2023-11-27T18:38:36.965Z,7.93
2023-11-27T18:41:03.715Z,5.05
2023-11-27T18:43:30.422Z,5.40
2023-11-27T18:45:57.193Z,4.18
2023-11-27T18:48:23.913Z,2.90
2023-11-27T18:50:50.796Z,2.97
2023-11-27T18:53:17.583Z,3.70
2023-11-27T18:55:44.622Z,2.72
2023-11-27T18:58:14.849Z,2.97
2023-11-27T19:00:41.948Z,2.70
2023-11-27T19:03:08.872Z,2.85
2023-11-27T19:05:38.951Z,2.35
2023-11-27T19:08:06.130Z,3.03
2023-11-27T19:10:33.324Z,5.88
2023-11-27T19:13:01.022Z,3.08
2023-11-27T19:15:28.027Z,5.43
2023-11-27T19:17:54.888Z,2.67
2023-11-27T19:20:21.602Z,2.70
2023-11-27T19:22:48.482Z,2.72
2023-11-27T19:25:15.775Z,3.13
2023-11-27T19:27:42.810Z,2.50
2023-11-27T19:30:10.795Z,2.75
2023-11-27T19:32:41.248Z,3.15
2023-11-27T19:35:09.521Z,3.22
2023-11-27T19:37:36.474Z,3.08
2023-11-27T19:40:06.970Z,4.75
2023-11-27T19:42:33.757Z,4.88
2023-11-27T19:45:03.710Z,4.93
2023-11-27T19:47:30.587Z,4.65
2023-11-27T19:49:57.461Z,4.22
2023-11-27T19:52:24.282Z,4.65
2023-11-27T19:54:51.046Z,2.58
2023-11-27T19:57:18.006Z,3.45
2023-11-27T19:59:45.819Z,2.30
2023-11-27T20:02:12.809Z,2.90
2023-11-27T20:04:40.621Z,3.35
2023-11-27T20:07:07.429Z,2.92
2023-11-27T20:09:34.348Z,2.92
2023-11-27T20:12:01.007Z,2.60
2023-11-27T20:14:29.051Z,2.55
2023-11-27T20:16:55.898Z,3.33
2023-11-27T20:19:22.878Z,2.45
2023-11-27T20:21:49.726Z,3.92
2023-11-27T20:24:16.671Z,2.80
2023-11-27T20:26:44.149Z,2.50
2023-11-27T20:29:10.887Z,2.85
2023-11-27T20:31:38.881Z,3.47
2023-11-27T20:34:09.385Z,2.38
2023-11-27T20:36:39.780Z,3.30
2023-11-27T20:39:12.221Z,2.13
2023-11-27T20:41:41.935Z,3.92
2023-11-27T20:44:09.948Z,2.63
2023-11-27T20:46:37.140Z,2.42
2023-11-27T20:49:04.023Z,3.10
2023-11-27T20:51:33.005Z,2.67
2023-11-27T20:53:59.766Z,2.17
2023-11-27T20:56:27.075Z,2.67
2023-11-27T20:58:54.231Z,2.30
2023-11-27T21:01:24.390Z,2.33
2023-11-27T21:03:52.802Z,2.22
2023-11-27T21:06:25.716Z,3.20
2023-11-27T21:08:53.133Z,3.35
2023-11-27T21:11:21.242Z,3.05
2023-11-27T21:13:48.649Z,2.88
2023-11-27T21:16:15.748Z,2.42
2023-11-27T21:18:46.491Z,2.45
2023-11-27T21:21:13.880Z,2.40
2023-11-27T21:23:40.611Z,2.83
2023-11-27T21:26:08.405Z,3.90
2023-11-27T21:28:36.693Z,2.65
2023-11-27T21:31:03.536Z,2.92
2023-11-27T21:33:30.258Z,3.33
2023-11-27T21:35:58.923Z,3.65
2023-11-27T21:38:25.799Z,3.28
2023-11-27T21:40:52.558Z,3.97
2023-11-27T21:43:19.617Z,4.47
2023-11-27T21:45:46.463Z,2.78
2023-11-27T21:48:13.274Z,2.40
2023-11-27T21:50:40.030Z,3.13
2023-11-27T21:53:06.764Z,3.15
2023-11-27T21:55:33.540Z,2.42
2023-11-27T21:58:00.483Z,2.53
2023-11-27T22:00:27.170Z,2.45
2023-11-27T22:02:53.981Z,3.17
2023-11-27T22:05:20.726Z,2.80
2023-11-27T22:07:50.440Z,2.13
2023-11-27T22:10:21.654Z,2.53
2023-11-27T22:12:48.862Z,2.35
2023-11-27T22:15:15.777Z,3.40
2023-11-27T22:17:43.048Z,2.15
2023-11-27T22:20:12.700Z,1.95
2023-11-27T22:22:40.690Z,2.22
2023-11-27T22:25:08.496Z,2.22
2023-11-27T22:27:36.928Z,2.33
2023-11-27T22:30:06.159Z,2.47
2023-11-27T22:32:33.130Z,2.63
2023-11-27T22:34:59.980Z,2.83
2023-11-27T22:37:26.756Z,2.42
2023-11-27T22:39:53.452Z,2.30
2023-11-27T22:42:20.104Z,2.65
2023-11-27T22:44:47.290Z,2.45
2023-11-27T22:47:14.049Z,2.58
2023-11-27T22:49:40.848Z,2.40
2023-11-27T22:52:07.926Z,2.42
2023-11-27T22:54:34.683Z,2.28
2023-11-27T22:57:01.408Z,3.10
2023-11-27T22:59:28.200Z,2.20
2023-11-27T23:01:55.088Z,2.40
2023-11-27T23:04:22.222Z,2.33
2023-11-27T23:06:49.031Z,2.95
2023-11-27T23:09:15.773Z,3.15
2023-11-27T23:11:46.688Z,3.40
2023-11-27T23:14:14.218Z,3.35
2023-11-27T23:16:42.737Z,2.90
2023-11-27T23:19:09.490Z,3.30
2023-11-27T23:21:36.604Z,4.75
2023-11-27T23:24:08.894Z,4.18
2023-11-27T23:26:40.901Z,4.18
2023-11-27T23:29:08.927Z,4.20
2023-11-27T23:31:39.108Z,4.45
2023-11-27T23:34:05.792Z,4.75
2023-11-27T23:36:32.480Z,4.00
2023-11-27T23:38:59.205Z,4.47
2023-11-27T23:41:26.000Z,3.80
2023-11-27T23:43:54.441Z,3.97
2023-11-27T23:46:22.076Z,4.50
2023-11-27T23:48:51.781Z,3.38
2023-11-27T23:51:20.175Z,3.58
2023-11-27T23:53:48.769Z,3.10
2023-11-27T23:56:16.150Z,6.72
2023-11-27T23:58:43.304Z,4.68
